sensor_id;sensor_type;location;lat;lon;timestamp;P1;durP1;ratioP1;P2;durP2;ratioP2
18046;SDS011;9148;51.454;13.862;2023-05-10T00:01:45;2.27;;;2.07;;
18046;SDS011;9148;51.454;13.862;2023-05-10T00:04:10;2.27;;;1.63;;
18046;SDS011;9148;51.454;13.862;2023-05-10T00:06:36;2.87;;;1.90;;
18046;SDS011;9148;51.454;13.862;2023-05-10T00:09:07;1.40;;;1.30;;
18046;SDS011;9148;51.454;13.862;2023-05-10T00:11:33;4.77;;;2.00;;
18046;SDS011;9148;51.454;13.862;2023-05-10T00:13:59;2.00;;;1.63;;
18046;SDS011;9148;51.454;13.862;2023-05-10T00:16:24;1.60;;;1.33;;
18046;SDS011;9148;51.454;13.862;2023-05-10T00:18:50;2.90;;;1.60;;
18046;SDS011;9148;51.454;13.862;2023-05-10T00:21:16;1.97;;;1.40;;
18046;SDS011;9148;51.454;13.862;2023-05-10T00:23:41;2.57;;;1.73;;
18046;SDS011;9148;51.454;13.862;2023-05-10T00:26:07;2.23;;;1.57;;
18046;SDS011;9148;51.454;13.862;2023-05-10T00:28:32;1.87;;;1.63;;
18046;SDS011;9148;51.454;13.862;2023-05-10T00:30:58;1.40;;;1.30;;
18046;SDS011;9148;51.454;13.862;2023-05-10T00:33:24;2.73;;;2.07;;
18046;SDS011;9148;51.454;13.862;2023-05-10T00:35:49;3.17;;;2.03;;
18046;SDS011;9148;51.454;13.862;2023-05-10T00:38:15;3.50;;;2.03;;
18046;SDS011;9148;51.454;13.862;2023-05-10T00:40:41;5.07;;;1.90;;
18046;SDS011;9148;51.454;13.862;2023-05-10T00:43:06;2.37;;;1.80;;
18046;SDS011;9148;51.454;13.862;2023-05-10T00:45:32;1.43;;;1.33;;
18046;SDS011;9148;51.454;13.862;2023-05-10T00:48:03;1.93;;;1.73;;
18046;SDS011;9148;51.454;13.862;2023-05-10T00:50:30;2.97;;;2.20;;
18046;SDS011;9148;51.454;13.862;2023-05-10T00:52:57;6.33;;;2.50;;
18046;SDS011;9148;51.454;13.862;2023-05-10T00:55:24;1.70;;;1.60;;
18046;SDS011;9148;51.454;13.862;2023-05-10T00:57:50;3.37;;;1.80;;
18046;SDS011;9148;51.454;13.862;2023-05-10T01:00:17;2.87;;;1.87;;
18046;SDS011;9148;51.454;13.862;2023-05-10T01:02:46;2.87;;;1.97;;
18046;SDS011;9148;51.454;13.862;2023-05-10T01:05:16;2.17;;;1.13;;
18046;SDS011;9148;51.454;13.862;2023-05-10T01:07:41;1.43;;;1.00;;
18046;SDS011;9148;51.454;13.862;2023-05-10T01:10:07;2.00;;;1.70;;
18046;SDS011;9148;51.454;13.862;2023-05-10T01:12:35;2.20;;;1.77;;
18046;SDS011;9148;51.454;13.862;2023-05-10T01:15:05;1.80;;;1.70;;
18046;SDS011;9148;51.454;13.862;2023-05-10T01:17:33;3.63;;;1.80;;
18046;SDS011;9148;51.454;13.862;2023-05-10T01:20:01;1.83;;;1.60;;
18046;SDS011;9148;51.454;13.862;2023-05-10T01:22:35;1.00;;;1.00;;
18046;SDS011;9148;51.454;13.862;2023-05-10T01:28:33;2.67;;;2.23;;
18046;SDS011;9148;51.454;13.862;2023-05-10T01:31:22;2.57;;;1.83;;
18046;SDS011;9148;51.454;13.862;2023-05-10T01:34:19;3.20;;;1.50;;
18046;SDS011;9148;51.454;13.862;2023-05-10T01:36:54;1.83;;;1.40;;
18046;SDS011;9148;51.454;13.862;2023-05-10T01:42:21;1.60;;;1.50;;
18046;SDS011;9148;51.454;13.862;2023-05-10T01:48:10;2.73;;;1.67;;
18046;SDS011;9148;51.454;13.862;2023-05-10T01:50:40;1.70;;;1.30;;
18046;SDS011;9148;51.454;13.862;2023-05-10T01:53:09;2.50;;;1.93;;
18046;SDS011;9148;51.454;13.862;2023-05-10T01:55:39;2.50;;;1.77;;
18046;SDS011;9148;51.454;13.862;2023-05-10T01:58:13;2.20;;;1.93;;
18046;SDS011;9148;51.454;13.862;2023-05-10T02:00:44;1.93;;;1.63;;
18046;SDS011;9148;51.454;13.862;2023-05-10T02:03:12;1.67;;;1.40;;
18046;SDS011;9148;51.454;13.862;2023-05-10T02:05:39;3.37;;;2.00;;
18046;SDS011;9148;51.454;13.862;2023-05-10T02:08:10;1.90;;;1.80;;
18046;SDS011;9148;51.454;13.862;2023-05-10T02:10:37;2.27;;;1.70;;
18046;SDS011;9148;51.454;13.862;2023-05-10T02:13:05;2.63;;;1.77;;
18046;SDS011;9148;51.454;13.862;2023-05-10T02:15:32;1.87;;;1.70;;
18046;SDS011;9148;51.454;13.862;2023-05-10T02:17:59;1.67;;;1.50;;
18046;SDS011;9148;51.454;13.862;2023-05-10T02:20:27;1.53;;;1.43;;
18046;SDS011;9148;51.454;13.862;2023-05-10T02:22:54;1.63;;;1.47;;
18046;SDS011;9148;51.454;13.862;2023-05-10T02:25:22;2.03;;;1.80;;
18046;SDS011;9148;51.454;13.862;2023-05-10T02:27:49;1.00;;;0.90;;
18046;SDS011;9148;51.454;13.862;2023-05-10T02:30:17;1.90;;;1.40;;
18046;SDS011;9148;51.454;13.862;2023-05-10T02:32:44;3.07;;;1.93;;
18046;SDS011;9148;51.454;13.862;2023-05-10T02:35:10;1.43;;;1.33;;
18046;SDS011;9148;51.454;13.862;2023-05-10T02:37:37;2.20;;;1.87;;
18046;SDS011;9148;51.454;13.862;2023-05-10T02:40:05;1.00;;;1.00;;
18046;SDS011;9148;51.454;13.862;2023-05-10T02:42:32;2.23;;;1.77;;
18046;SDS011;9148;51.454;13.862;2023-05-10T02:45:03;1.90;;;1.43;;
18046;SDS011;9148;51.454;13.862;2023-05-10T02:47:36;1.30;;;1.20;;
18046;SDS011;9148;51.454;13.862;2023-05-10T02:50:01;2.10;;;1.80;;
18046;SDS011;9148;51.454;13.862;2023-05-10T02:52:29;2.10;;;1.37;;
18046;SDS011;9148;51.454;13.862;2023-05-10T02:55:11;1.97;;;1.67;;
18046;SDS011;9148;51.454;13.862;2023-05-10T02:57:41;1.93;;;1.77;;
18046;SDS011;9148;51.454;13.862;2023-05-10T03:00:13;2.03;;;1.70;;
18046;SDS011;9148;51.454;13.862;2023-05-10T03:02:38;2.70;;;1.90;;
18046;SDS011;9148;51.454;13.862;2023-05-10T03:05:04;2.67;;;1.53;;
18046;SDS011;9148;51.454;13.862;2023-05-10T03:07:30;1.73;;;1.53;;
18046;SDS011;9148;51.454;13.862;2023-05-10T03:09:56;1.67;;;1.57;;
18046;SDS011;9148;51.454;13.862;2023-05-10T03:12:44;2.13;;;1.50;;
18046;SDS011;9148;51.454;13.862;2023-05-10T03:18:25;3.93;;;1.30;;
18046;SDS011;9148;51.454;13.862;2023-05-10T03:21:16;1.13;;;1.07;;
18046;SDS011;9148;51.454;13.862;2023-05-10T03:23:45;1.33;;;1.23;;
18046;SDS011;9148;51.454;13.862;2023-05-10T03:26:26;3.27;;;2.13;;
18046;SDS011;9148;51.454;13.862;2023-05-10T03:28:53;2.63;;;1.43;;
18046;SDS011;9148;51.454;13.862;2023-05-10T03:31:20;4.63;;;1.47;;
18046;SDS011;9148;51.454;13.862;2023-05-10T03:33:49;2.13;;;1.47;;
18046;SDS011;9148;51.454;13.862;2023-05-10T03:36:17;3.67;;;1.50;;
18046;SDS011;9148;51.454;13.862;2023-05-10T03:38:43;3.63;;;1.47;;
18046;SDS011;9148;51.454;13.862;2023-05-10T03:41:22;2.03;;;1.30;;
18046;SDS011;9148;51.454;13.862;2023-05-10T03:43:47;1.63;;;1.53;;
18046;SDS011;9148;51.454;13.862;2023-05-10T03:46:13;2.57;;;2.07;;
18046;SDS011;9148;51.454;13.862;2023-05-10T03:48:39;1.33;;;1.23;;
18046;SDS011;9148;51.454;13.862;2023-05-10T03:51:04;2.77;;;1.70;;
18046;SDS011;9148;51.454;13.862;2023-05-10T03:53:30;1.97;;;1.60;;
18046;SDS011;9148;51.454;13.862;2023-05-10T03:55:55;1.53;;;1.37;;
18046;SDS011;9148;51.454;13.862;2023-05-10T03:58:21;1.87;;;1.47;;
18046;SDS011;9148;51.454;13.862;2023-05-10T04:00:47;2.10;;;1.77;;
18046;SDS011;9148;51.454;13.862;2023-05-10T04:03:12;2.13;;;1.90;;
18046;SDS011;9148;51.454;13.862;2023-05-10T04:05:38;2.20;;;1.60;;
18046;SDS011;9148;51.454;13.862;2023-05-10T04:08:05;4.20;;;1.50;;
18046;SDS011;9148;51.454;13.862;2023-05-10T04:10:31;2.03;;;1.57;;
18046;SDS011;9148;51.454;13.862;2023-05-10T04:12:57;2.43;;;1.53;;
18046;SDS011;9148;51.454;13.862;2023-05-10T04:15:22;2.20;;;1.40;;
18046;SDS011;9148;51.454;13.862;2023-05-10T04:17:48;1.90;;;1.53;;
18046;SDS011;9148;51.454;13.862;2023-05-10T04:20:15;2.63;;;1.90;;
18046;SDS011;9148;51.454;13.862;2023-05-10T04:22:40;2.57;;;1.50;;
18046;SDS011;9148;51.454;13.862;2023-05-10T04:25:06;1.93;;;1.83;;
18046;SDS011;9148;51.454;13.862;2023-05-10T04:27:32;1.90;;;1.47;;
18046;SDS011;9148;51.454;13.862;2023-05-10T04:29:58;2.87;;;1.50;;
18046;SDS011;9148;51.454;13.862;2023-05-10T04:32:24;2.37;;;1.83;;
18046;SDS011;9148;51.454;13.862;2023-05-10T04:34:50;2.17;;;1.33;;
18046;SDS011;9148;51.454;13.862;2023-05-10T04:37:18;0.77;;;0.77;;
18046;SDS011;9148;51.454;13.862;2023-05-10T04:39:46;1.53;;;1.30;;
18046;SDS011;9148;51.454;13.862;2023-05-10T04:42:11;2.57;;;1.60;;
18046;SDS011;9148;51.454;13.862;2023-05-10T04:44:39;6.10;;;1.20;;
18046;SDS011;9148;51.454;13.862;2023-05-10T04:47:05;4.67;;;1.20;;
18046;SDS011;9148;51.454;13.862;2023-05-10T04:49:31;1.80;;;1.67;;
18046;SDS011;9148;51.454;13.862;2023-05-10T04:51:57;1.70;;;1.23;;
18046;SDS011;9148;51.454;13.862;2023-05-10T04:54:22;1.77;;;1.67;;
18046;SDS011;9148;51.454;13.862;2023-05-10T04:56:48;2.37;;;0.80;;
18046;SDS011;9148;51.454;13.862;2023-05-10T04:59:14;1.90;;;1.60;;
18046;SDS011;9148;51.454;13.862;2023-05-10T05:01:40;3.30;;;1.57;;
18046;SDS011;9148;51.454;13.862;2023-05-10T05:04:05;1.37;;;1.17;;
18046;SDS011;9148;51.454;13.862;2023-05-10T05:06:31;1.30;;;1.10;;
18046;SDS011;9148;51.454;13.862;2023-05-10T05:08:57;1.30;;;1.20;;
18046;SDS011;9148;51.454;13.862;2023-05-10T05:11:23;1.70;;;1.43;;
18046;SDS011;9148;51.454;13.862;2023-05-10T05:13:48;1.67;;;1.03;;
18046;SDS011;9148;51.454;13.862;2023-05-10T05:16:14;1.57;;;1.23;;
18046;SDS011;9148;51.454;13.862;2023-05-10T05:18:40;1.30;;;1.20;;
18046;SDS011;9148;51.454;13.862;2023-05-10T05:21:15;1.27;;;1.17;;
18046;SDS011;9148;51.454;13.862;2023-05-10T05:23:44;1.67;;;1.50;;
18046;SDS011;9148;51.454;13.862;2023-05-10T05:26:10;1.47;;;1.30;;
18046;SDS011;9148;51.454;13.862;2023-05-10T05:28:36;1.63;;;1.00;;
18046;SDS011;9148;51.454;13.862;2023-05-10T05:31:03;2.73;;;1.10;;
18046;SDS011;9148;51.454;13.862;2023-05-10T05:33:30;2.63;;;1.40;;
18046;SDS011;9148;51.454;13.862;2023-05-10T05:35:56;2.10;;;1.10;;
18046;SDS011;9148;51.454;13.862;2023-05-10T05:38:21;2.43;;;1.30;;
18046;SDS011;9148;51.454;13.862;2023-05-10T05:40:47;1.77;;;1.00;;
18046;SDS011;9148;51.454;13.862;2023-05-10T05:43:13;1.43;;;1.30;;
18046;SDS011;9148;51.454;13.862;2023-05-10T05:45:38;1.20;;;1.10;;
18046;SDS011;9148;51.454;13.862;2023-05-10T05:48:04;1.30;;;1.17;;
18046;SDS011;9148;51.454;13.862;2023-05-10T05:50:30;0.57;;;0.47;;
18046;SDS011;9148;51.454;13.862;2023-05-10T05:52:56;1.02;;;0.93;;
18046;SDS011;9148;51.454;13.862;2023-05-10T05:55:22;0.55;;;0.55;;
18046;SDS011;9148;51.454;13.862;2023-05-10T05:57:49;0.95;;;0.70;;
18046;SDS011;9148;51.454;13.862;2023-05-10T06:00:14;1.05;;;0.75;;
18046;SDS011;9148;51.454;13.862;2023-05-10T06:02:41;0.40;;;0.40;;
18046;SDS011;9148;51.454;13.862;2023-05-10T06:05:06;1.50;;;0.80;;
18046;SDS011;9148;51.454;13.862;2023-05-10T06:07:33;0.47;;;0.47;;
18046;SDS011;9148;51.454;13.862;2023-05-10T06:09:58;2.33;;;1.38;;
18046;SDS011;9148;51.454;13.862;2023-05-10T06:12:24;0.70;;;0.70;;
18046;SDS011;9148;51.454;13.862;2023-05-10T06:14:50;1.02;;;0.60;;
18046;SDS011;9148;51.454;13.862;2023-05-10T06:17:15;1.73;;;0.68;;
18046;SDS011;9148;51.454;13.862;2023-05-10T06:19:41;1.15;;;1.05;;
18046;SDS011;9148;51.454;13.862;2023-05-10T06:22:07;0.47;;;0.47;;
18046;SDS011;9148;51.454;13.862;2023-05-10T06:24:32;0.30;;;0.30;;
18046;SDS011;9148;51.454;13.862;2023-05-10T06:26:58;2.72;;;0.73;;
18046;SDS011;9148;51.454;13.862;2023-05-10T06:29:25;0.50;;;0.50;;
18046;SDS011;9148;51.454;13.862;2023-05-10T06:31:51;1.75;;;0.80;;
18046;SDS011;9148;51.454;13.862;2023-05-10T06:34:16;1.35;;;0.60;;
18046;SDS011;9148;51.454;13.862;2023-05-10T06:36:42;1.67;;;0.50;;
18046;SDS011;9148;51.454;13.862;2023-05-10T06:39:08;0.75;;;0.68;;
18046;SDS011;9148;51.454;13.862;2023-05-10T06:41:33;0.90;;;0.90;;
18046;SDS011;9148;51.454;13.862;2023-05-10T06:43:59;2.38;;;0.60;;
18046;SDS011;9148;51.454;13.862;2023-05-10T06:46:25;1.13;;;0.63;;
18046;SDS011;9148;51.454;13.862;2023-05-10T06:48:50;1.23;;;0.77;;
18046;SDS011;9148;51.454;13.862;2023-05-10T06:51:16;1.27;;;1.00;;
18046;SDS011;9148;51.454;13.862;2023-05-10T06:53:42;1.90;;;0.70;;
18046;SDS011;9148;51.454;13.862;2023-05-10T06:56:08;1.65;;;1.05;;
18046;SDS011;9148;51.454;13.862;2023-05-10T06:58:33;0.85;;;0.45;;
18046;SDS011;9148;51.454;13.862;2023-05-10T07:01:03;0.73;;;0.50;;
18046;SDS011;9148;51.454;13.862;2023-05-10T07:03:29;3.30;;;1.23;;
18046;SDS011;9148;51.454;13.862;2023-05-10T07:06:00;0.95;;;0.90;;
18046;SDS011;9148;51.454;13.862;2023-05-10T07:08:28;0.77;;;0.65;;
18046;SDS011;9148;51.454;13.862;2023-05-10T07:11:02;0.47;;;0.47;;
18046;SDS011;9148;51.454;13.862;2023-05-10T07:13:30;0.73;;;0.68;;
18046;SDS011;9148;51.454;13.862;2023-05-10T07:15:57;0.70;;;0.65;;
18046;SDS011;9148;51.454;13.862;2023-05-10T07:18:24;2.05;;;1.10;;
18046;SDS011;9148;51.454;13.862;2023-05-10T07:20:50;0.55;;;0.40;;
18046;SDS011;9148;51.454;13.862;2023-05-10T07:23:16;0.88;;;0.82;;
18046;SDS011;9148;51.454;13.862;2023-05-10T07:25:45;1.08;;;0.73;;
18046;SDS011;9148;51.454;13.862;2023-05-10T07:28:13;1.33;;;0.63;;
18046;SDS011;9148;51.454;13.862;2023-05-10T07:30:39;0.82;;;0.45;;
18046;SDS011;9148;51.454;13.862;2023-05-10T07:33:05;1.73;;;1.20;;
18046;SDS011;9148;51.454;13.862;2023-05-10T07:35:30;0.57;;;0.50;;
18046;SDS011;9148;51.454;13.862;2023-05-10T07:37:56;11.35;;;2.17;;
18046;SDS011;9148;51.454;13.862;2023-05-10T07:40:22;3.50;;;1.25;;
18046;SDS011;9148;51.454;13.862;2023-05-10T07:42:47;1.35;;;0.73;;
18046;SDS011;9148;51.454;13.862;2023-05-10T07:45:13;0.50;;;0.50;;
18046;SDS011;9148;51.454;13.862;2023-05-10T07:47:39;0.98;;;0.77;;
18046;SDS011;9148;51.454;13.862;2023-05-10T07:50:04;3.17;;;1.42;;
18046;SDS011;9148;51.454;13.862;2023-05-10T07:52:31;0.60;;;0.57;;
18046;SDS011;9148;51.454;13.862;2023-05-10T07:54:57;0.85;;;0.80;;
18046;SDS011;9148;51.454;13.862;2023-05-10T07:57:23;0.80;;;0.80;;
18046;SDS011;9148;51.454;13.862;2023-05-10T07:59:48;0.90;;;0.73;;
18046;SDS011;9148;51.454;13.862;2023-05-10T08:02:14;1.08;;;0.90;;
18046;SDS011;9148;51.454;13.862;2023-05-10T08:04:40;0.80;;;0.80;;
18046;SDS011;9148;51.454;13.862;2023-05-10T08:07:06;1.10;;;0.93;;
18046;SDS011;9148;51.454;13.862;2023-05-10T08:09:32;0.95;;;0.93;;
18046;SDS011;9148;51.454;13.862;2023-05-10T08:11:58;0.88;;;0.88;;
18046;SDS011;9148;51.454;13.862;2023-05-10T08:14:24;1.50;;;0.90;;
18046;SDS011;9148;51.454;13.862;2023-05-10T08:16:52;1.98;;;0.85;;
18046;SDS011;9148;51.454;13.862;2023-05-10T08:19:17;0.93;;;0.60;;
18046;SDS011;9148;51.454;13.862;2023-05-10T08:21:44;1.25;;;0.98;;
18046;SDS011;9148;51.454;13.862;2023-05-10T08:24:10;0.77;;;0.77;;
18046;SDS011;9148;51.454;13.862;2023-05-10T08:26:36;0.85;;;0.70;;
18046;SDS011;9148;51.454;13.862;2023-05-10T08:29:02;1.05;;;0.98;;
18046;SDS011;9148;51.454;13.862;2023-05-10T08:31:28;1.13;;;0.80;;
18046;SDS011;9148;51.454;13.862;2023-05-10T08:33:53;0.70;;;0.40;;
18046;SDS011;9148;51.454;13.862;2023-05-10T08:36:19;0.98;;;0.70;;
18046;SDS011;9148;51.454;13.862;2023-05-10T08:38:47;1.40;;;0.80;;
18046;SDS011;9148;51.454;13.862;2023-05-10T08:41:19;2.85;;;0.82;;
18046;SDS011;9148;51.454;13.862;2023-05-10T08:43:46;0.90;;;0.82;;
18046;SDS011;9148;51.454;13.862;2023-05-10T08:46:13;1.27;;;0.82;;
18046;SDS011;9148;51.454;13.862;2023-05-10T08:48:43;0.68;;;0.52;;
18046;SDS011;9148;51.454;13.862;2023-05-10T08:51:12;1.02;;;0.85;;
18046;SDS011;9148;51.454;13.862;2023-05-10T08:53:40;2.17;;;1.00;;
18046;SDS011;9148;51.454;13.862;2023-05-10T08:56:06;1.38;;;0.88;;
18046;SDS011;9148;51.454;13.862;2023-05-10T08:58:32;0.95;;;0.60;;
18046;SDS011;9148;51.454;13.862;2023-05-10T09:00:57;1.77;;;1.00;;
18046;SDS011;9148;51.454;13.862;2023-05-10T09:03:25;1.40;;;1.02;;
18046;SDS011;9148;51.454;13.862;2023-05-10T09:05:51;0.70;;;0.70;;
18046;SDS011;9148;51.454;13.862;2023-05-10T09:08:17;1.13;;;1.05;;
18046;SDS011;9148;51.454;13.862;2023-05-10T09:10:43;1.40;;;0.73;;
18046;SDS011;9148;51.454;13.862;2023-05-10T09:13:12;1.15;;;1.05;;
18046;SDS011;9148;51.454;13.862;2023-05-10T09:15:39;0.98;;;0.75;;
18046;SDS011;9148;51.454;13.862;2023-05-10T09:18:04;0.60;;;0.60;;
18046;SDS011;9148;51.454;13.862;2023-05-10T09:20:30;1.23;;;1.13;;
18046;SDS011;9148;51.454;13.862;2023-05-10T09:22:56;0.80;;;0.75;;
18046;SDS011;9148;51.454;13.862;2023-05-10T09:25:21;1.02;;;0.73;;
18046;SDS011;9148;51.454;13.862;2023-05-10T09:27:47;1.83;;;0.90;;
18046;SDS011;9148;51.454;13.862;2023-05-10T09:30:22;2.08;;;1.00;;
18046;SDS011;9148;51.454;13.862;2023-05-10T09:32:54;1.13;;;1.02;;
18046;SDS011;9148;51.454;13.862;2023-05-10T09:35:22;1.27;;;0.75;;
18046;SDS011;9148;51.454;13.862;2023-05-10T09:37:53;1.55;;;0.82;;
18046;SDS011;9148;51.454;13.862;2023-05-10T09:40:22;1.13;;;0.70;;
18046;SDS011;9148;51.454;13.862;2023-05-10T09:43:03;2.13;;;0.93;;
18046;SDS011;9148;51.454;13.862;2023-05-10T09:45:32;2.17;;;1.15;;
18046;SDS011;9148;51.454;13.862;2023-05-10T09:48:00;3.88;;;1.33;;
18046;SDS011;9148;51.454;13.862;2023-05-10T09:50:28;1.05;;;0.73;;
18046;SDS011;9148;51.454;13.862;2023-05-10T09:52:59;1.13;;;1.02;;
18046;SDS011;9148;51.454;13.862;2023-05-10T09:58:11;1.85;;;0.95;;
18046;SDS011;9148;51.454;13.862;2023-05-10T10:00:38;1.38;;;1.02;;
18046;SDS011;9148;51.454;13.862;2023-05-10T10:03:07;0.93;;;0.80;;
18046;SDS011;9148;51.454;13.862;2023-05-10T10:05:39;1.10;;;0.60;;
18046;SDS011;9148;51.454;13.862;2023-05-10T10:08:10;0.85;;;0.77;;
18046;SDS011;9148;51.454;13.862;2023-05-10T10:10:37;2.55;;;1.10;;
18046;SDS011;9148;51.454;13.862;2023-05-10T10:13:05;0.68;;;0.65;;
18046;SDS011;9148;51.454;13.862;2023-05-10T10:15:32;3.63;;;1.83;;
18046;SDS011;9148;51.454;13.862;2023-05-10T10:17:59;1.00;;;0.82;;
18046;SDS011;9148;51.454;13.862;2023-05-10T10:20:28;1.13;;;0.70;;
18046;SDS011;9148;51.454;13.862;2023-05-10T10:22:54;0.63;;;0.60;;
18046;SDS011;9148;51.454;13.862;2023-05-10T10:25:20;0.93;;;0.80;;
18046;SDS011;9148;51.454;13.862;2023-05-10T10:33:06;1.55;;;0.88;;
18046;SDS011;9148;51.454;13.862;2023-05-10T10:36:00;1.92;;;0.93;;
18046;SDS011;9148;51.454;13.862;2023-05-10T10:38:37;1.00;;;0.68;;
18046;SDS011;9148;51.454;13.862;2023-05-10T10:41:27;1.55;;;0.70;;
18046;SDS011;9148;51.454;13.862;2023-05-10T10:52:25;0.77;;;0.77;;
18046;SDS011;9148;51.454;13.862;2023-05-10T10:55:05;1.27;;;0.95;;
18046;SDS011;9148;51.454;13.862;2023-05-10T11:02:59;1.02;;;0.88;;
18046;SDS011;9148;51.454;13.862;2023-05-10T11:10:40;0.50;;;0.50;;
18046;SDS011;9148;51.454;13.862;2023-05-10T11:13:28;1.80;;;0.68;;
18046;SDS011;9148;51.454;13.862;2023-05-10T11:15:54;0.98;;;0.88;;
18046;SDS011;9148;51.454;13.862;2023-05-10T11:18:25;0.95;;;0.77;;
18046;SDS011;9148;51.454;13.862;2023-05-10T11:20:57;2.13;;;1.17;;
18046;SDS011;9148;51.454;13.862;2023-05-10T11:26:24;0.80;;;0.70;;
18046;SDS011;9148;51.454;13.862;2023-05-10T11:28:56;1.55;;;0.90;;
18046;SDS011;9148;51.454;13.862;2023-05-10T11:31:23;1.85;;;0.82;;
18046;SDS011;9148;51.454;13.862;2023-05-10T11:33:52;0.82;;;0.82;;
18046;SDS011;9148;51.454;13.862;2023-05-10T11:36:23;0.80;;;0.80;;
18046;SDS011;9148;51.454;13.862;2023-05-10T11:38:52;0.90;;;0.65;;
18046;SDS011;9148;51.454;13.862;2023-05-10T11:41:19;1.90;;;1.10;;
18046;SDS011;9148;51.454;13.862;2023-05-10T11:43:47;0.95;;;0.80;;
18046;SDS011;9148;51.454;13.862;2023-05-10T11:46:15;1.35;;;0.95;;
18046;SDS011;9148;51.454;13.862;2023-05-10T11:48:42;1.60;;;0.90;;
18046;SDS011;9148;51.454;13.862;2023-05-10T11:51:08;0.70;;;0.70;;
18046;SDS011;9148;51.454;13.862;2023-05-10T11:53:35;1.30;;;1.02;;
18046;SDS011;9148;51.454;13.862;2023-05-10T11:56:07;0.45;;;0.45;;
18046;SDS011;9148;51.454;13.862;2023-05-10T11:58:35;1.20;;;0.70;;
18046;SDS011;9148;51.454;13.862;2023-05-10T12:01:02;2.63;;;0.90;;
18046;SDS011;9148;51.454;13.862;2023-05-10T12:03:30;1.15;;;0.80;;
18046;SDS011;9148;51.454;13.862;2023-05-10T12:05:57;1.25;;;1.15;;
18046;SDS011;9148;51.454;13.862;2023-05-10T12:08:24;1.75;;;0.85;;
18046;SDS011;9148;51.454;13.862;2023-05-10T12:10:53;0.98;;;0.82;;
18046;SDS011;9148;51.454;13.862;2023-05-10T12:13:29;0.77;;;0.77;;
18046;SDS011;9148;51.454;13.862;2023-05-10T12:18:48;1.10;;;1.00;;
18046;SDS011;9148;51.454;13.862;2023-05-10T12:21:15;1.92;;;1.00;;
18046;SDS011;9148;51.454;13.862;2023-05-10T12:23:42;1.17;;;0.98;;
18046;SDS011;9148;51.454;13.862;2023-05-10T12:26:10;0.75;;;0.65;;
18046;SDS011;9148;51.454;13.862;2023-05-10T12:28:39;1.48;;;1.15;;
18046;SDS011;9148;51.454;13.862;2023-05-10T12:31:05;2.30;;;0.95;;
18046;SDS011;9148;51.454;13.862;2023-05-10T12:33:38;0.80;;;0.80;;
18046;SDS011;9148;51.454;13.862;2023-05-10T12:36:09;0.68;;;0.50;;
18046;SDS011;9148;51.454;13.862;2023-05-10T12:38:37;1.05;;;0.82;;
18046;SDS011;9148;51.454;13.862;2023-05-10T12:41:06;1.10;;;0.93;;
18046;SDS011;9148;51.454;13.862;2023-05-10T12:43:34;1.58;;;0.80;;
18046;SDS011;9148;51.454;13.862;2023-05-10T12:46:11;0.80;;;0.80;;
18046;SDS011;9148;51.454;13.862;2023-05-10T12:48:38;1.17;;;1.08;;
18046;SDS011;9148;51.454;13.862;2023-05-10T12:51:06;2.72;;;1.48;;
18046;SDS011;9148;51.454;13.862;2023-05-10T12:53:34;0.82;;;0.82;;
18046;SDS011;9148;51.454;13.862;2023-05-10T12:56:00;0.95;;;0.93;;
18046;SDS011;9148;51.454;13.862;2023-05-10T12:58:26;0.50;;;0.50;;
18046;SDS011;9148;51.454;13.862;2023-05-10T13:00:52;0.93;;;0.82;;
18046;SDS011;9148;51.454;13.862;2023-05-10T13:03:18;1.27;;;0.95;;
18046;SDS011;9148;51.454;13.862;2023-05-10T13:05:44;1.80;;;0.90;;
18046;SDS011;9148;51.454;13.862;2023-05-10T13:08:09;1.38;;;1.02;;
18046;SDS011;9148;51.454;13.862;2023-05-10T13:10:35;2.97;;;0.88;;
18046;SDS011;9148;51.454;13.862;2023-05-10T13:13:01;1.17;;;1.02;;
18046;SDS011;9148;51.454;13.862;2023-05-10T13:15:27;2.47;;;0.93;;
18046;SDS011;9148;51.454;13.862;2023-05-10T13:17:53;1.48;;;1.38;;
18046;SDS011;9148;51.454;13.862;2023-05-10T13:20:19;1.20;;;1.10;;
18046;SDS011;9148;51.454;13.862;2023-05-10T13:22:45;1.15;;;0.88;;
18046;SDS011;9148;51.454;13.862;2023-05-10T13:25:11;0.93;;;0.68;;
18046;SDS011;9148;51.454;13.862;2023-05-10T13:27:41;1.42;;;1.02;;
18046;SDS011;9148;51.454;13.862;2023-05-10T13:30:09;1.10;;;1.00;;
18046;SDS011;9148;51.454;13.862;2023-05-10T13:32:36;1.67;;;1.02;;
18046;SDS011;9148;51.454;13.862;2023-05-10T13:35:02;2.38;;;0.98;;
18046;SDS011;9148;51.454;13.862;2023-05-10T13:37:30;2.38;;;0.98;;
18046;SDS011;9148;51.454;13.862;2023-05-10T13:39:56;1.63;;;1.30;;
18046;SDS011;9148;51.454;13.862;2023-05-10T13:42:22;2.90;;;0.95;;
18046;SDS011;9148;51.454;13.862;2023-05-10T13:44:48;2.05;;;0.70;;
18046;SDS011;9148;51.454;13.862;2023-05-10T13:47:15;1.80;;;0.77;;
18046;SDS011;9148;51.454;13.862;2023-05-10T13:49:40;1.77;;;1.08;;
18046;SDS011;9148;51.454;13.862;2023-05-10T13:52:06;3.30;;;1.23;;
18046;SDS011;9148;51.454;13.862;2023-05-10T13:54:33;0.63;;;0.55;;
18046;SDS011;9148;51.454;13.862;2023-05-10T13:56:59;3.45;;;1.05;;
18046;SDS011;9148;51.454;13.862;2023-05-10T13:59:25;1.52;;;0.73;;
18046;SDS011;9148;51.454;13.862;2023-05-10T14:01:51;1.10;;;0.90;;
18046;SDS011;9148;51.454;13.862;2023-05-10T14:04:16;1.30;;;1.15;;
18046;SDS011;9148;51.454;13.862;2023-05-10T14:06:42;0.82;;;0.57;;
18046;SDS011;9148;51.454;13.862;2023-05-10T14:09:08;0.90;;;0.88;;
18046;SDS011;9148;51.454;13.862;2023-05-10T14:11:34;1.50;;;1.23;;
18046;SDS011;9148;51.454;13.862;2023-05-10T14:14:00;1.75;;;1.25;;
18046;SDS011;9148;51.454;13.862;2023-05-10T14:16:25;7.88;;;1.90;;
18046;SDS011;9148;51.454;13.862;2023-05-10T14:18:52;1.98;;;1.88;;
18046;SDS011;9148;51.454;13.862;2023-05-10T14:21:17;4.50;;;1.35;;
18046;SDS011;9148;51.454;13.862;2023-05-10T14:23:43;1.10;;;0.90;;
18046;SDS011;9148;51.454;13.862;2023-05-10T14:26:09;2.00;;;1.25;;
18046;SDS011;9148;51.454;13.862;2023-05-10T14:28:34;1.20;;;1.10;;
18046;SDS011;9148;51.454;13.862;2023-05-10T14:31:00;2.15;;;1.65;;
18046;SDS011;9148;51.454;13.862;2023-05-10T14:33:26;7.93;;;1.42;;
18046;SDS011;9148;51.454;13.862;2023-05-10T14:35:53;2.47;;;1.73;;
18046;SDS011;9148;51.454;13.862;2023-05-10T14:38:21;1.08;;;1.02;;
18046;SDS011;9148;51.454;13.862;2023-05-10T14:40:47;2.80;;;1.50;;
18046;SDS011;9148;51.454;13.862;2023-05-10T14:43:13;9.20;;;1.73;;
18046;SDS011;9148;51.454;13.862;2023-05-10T14:45:38;3.55;;;1.60;;
18046;SDS011;9148;51.454;13.862;2023-05-10T14:48:04;3.22;;;1.50;;
18046;SDS011;9148;51.454;13.862;2023-05-10T14:50:30;2.05;;;1.42;;
18046;SDS011;9148;51.454;13.862;2023-05-10T14:52:56;2.78;;;2.30;;
18046;SDS011;9148;51.454;13.862;2023-05-10T14:55:23;2.92;;;1.80;;
18046;SDS011;9148;51.454;13.862;2023-05-10T14:57:49;4.10;;;2.63;;
18046;SDS011;9148;51.454;13.862;2023-05-10T15:00:15;2.63;;;1.90;;
18046;SDS011;9148;51.454;13.862;2023-05-10T15:02:41;2.08;;;1.35;;
18046;SDS011;9148;51.454;13.862;2023-05-10T15:05:07;1.38;;;1.27;;
18046;SDS011;9148;51.454;13.862;2023-05-10T15:07:33;1.55;;;1.33;;
18046;SDS011;9148;51.454;13.862;2023-05-10T15:09:59;2.25;;;1.77;;
18046;SDS011;9148;51.454;13.862;2023-05-10T15:12:25;1.77;;;1.13;;
18046;SDS011;9148;51.454;13.862;2023-05-10T15:14:50;3.28;;;1.95;;
18046;SDS011;9148;51.454;13.862;2023-05-10T15:17:16;1.42;;;1.23;;
18046;SDS011;9148;51.454;13.862;2023-05-10T15:19:42;1.15;;;0.70;;
18046;SDS011;9148;51.454;13.862;2023-05-10T15:22:08;2.13;;;1.45;;
18046;SDS011;9148;51.454;13.862;2023-05-10T15:24:33;1.58;;;1.15;;
18046;SDS011;9148;51.454;13.862;2023-05-10T15:26:59;1.50;;;1.00;;
18046;SDS011;9148;51.454;13.862;2023-05-10T15:29:25;1.33;;;1.08;;
18046;SDS011;9148;51.454;13.862;2023-05-10T15:31:51;1.20;;;1.10;;
18046;SDS011;9148;51.454;13.862;2023-05-10T15:34:17;2.30;;;1.67;;
18046;SDS011;9148;51.454;13.862;2023-05-10T15:36:44;2.13;;;1.35;;